sensor_id;sensor_type;location;lat;lon;timestamp;pressure;altitude;pressure_sealevel;temperature;humidity
4449;BME280;2237;51.870;6.160;2022-11-20T00:01:11;101224.94;;;-0.52;88.89
4449;BME280;2237;51.870;6.160;2022-11-20T00:03:38;101229.91;;;-0.57;88.99
4449;BME280;2237;51.870;6.160;2022-11-20T00:06:08;101229.78;;;-0.62;88.86
4449;BME280;2237;51.870;6.160;2022-11-20T00:08:35;101226.28;;;-0.64;89.44
4449;BME280;2237;51.870;6.160;2022-11-20T00:11:13;101230.50;;;-0.66;89.67
4449;BME280;2237;51.870;6.160;2022-11-20T00:13:46;101230.47;;;-0.67;89.96
4449;BME280;2237;51.870;6.160;2022-11-20T00:16:13;101236.44;;;-0.67;90.22
4449;BME280;2237;51.870;6.160;2022-11-20T00:18:39;101234.63;;;-0.71;89.98
4449;BME280;2237;51.870;6.160;2022-11-20T00:21:10;101227.66;;;-0.75;89.50
4449;BME280;2237;51.870;6.160;2022-11-20T00:23:37;101226.63;;;-0.81;89.83
4449;BME280;2237;51.870;6.160;2022-11-20T00:26:05;101223.13;;;-0.85;90.10
4449;BME280;2237;51.870;6.160;2022-11-20T00:28:31;101225.59;;;-0.88;90.45
4449;BME280;2237;51.870;6.160;2022-11-20T00:31:07;101222.09;;;-0.90;90.51
4449;BME280;2237;51.870;6.160;2022-11-20T00:33:34;101209.22;;;-0.93;90.58
4449;BME280;2237;51.870;6.160;2022-11-20T00:36:06;101207.41;;;-0.97;90.87
4449;BME280;2237;51.870;6.160;2022-11-20T00:38:33;101212.44;;;-1.00;90.88
4449;BME280;2237;51.870;6.160;2022-11-20T00:41:03;101206.53;;;-0.97;91.36
4449;BME280;2237;51.870;6.160;2022-11-20T00:43:30;101197.91;;;-1.01;91.09
4449;BME280;2237;51.870;6.160;2022-11-20T00:46:01;101203.13;;;-0.98;91.19
4449;BME280;2237;51.870;6.160;2022-11-20T00:48:28;101207.34;;;-0.98;91.40
4449;BME280;2237;51.870;6.160;2022-11-20T00:50:55;101198.00;;;-0.98;91.86
4449;BME280;2237;51.870;6.160;2022-11-20T00:53:21;101194.53;;;-1.00;92.17
4449;BME280;2237;51.870;6.160;2022-11-20T00:56:07;101206.59;;;-0.96;92.30
4449;BME280;2237;51.870;6.160;2022-11-20T00:58:35;101202.25;;;-0.98;92.45
4449;BME280;2237;51.870;6.160;2022-11-20T01:01:16;101201.41;;;-0.99;92.23
4449;BME280;2237;51.870;6.160;2022-11-20T01:03:46;101199.75;;;-0.97;92.70
4449;BME280;2237;51.870;6.160;2022-11-20T01:06:15;101199.75;;;-0.97;92.78
4449;BME280;2237;51.870;6.160;2022-11-20T01:08:42;101201.50;;;-0.96;92.94
4449;BME280;2237;51.870;6.160;2022-11-20T01:11:12;101199.00;;;-0.93;93.28
4449;BME280;2237;51.870;6.160;2022-11-20T01:13:39;101192.09;;;-0.95;93.09
4449;BME280;2237;51.870;6.160;2022-11-20T01:16:30;101201.50;;;-0.96;92.95
4449;BME280;2237;51.870;6.160;2022-11-20T01:18:57;101201.56;;;-0.93;92.61
4449;BME280;2237;51.870;6.160;2022-11-20T01:21:30;101198.94;;;-0.96;92.40
4449;BME280;2237;51.870;6.160;2022-11-20T01:23:57;101194.44;;;-1.03;92.53
4449;BME280;2237;51.870;6.160;2022-11-20T01:26:27;101191.81;;;-1.04;92.79
4449;BME280;2237;51.870;6.160;2022-11-20T01:28:55;101195.25;;;-1.04;93.19
4449;BME280;2237;51.870;6.160;2022-11-20T01:31:25;101190.13;;;-1.05;93.23
4449;BME280;2237;51.870;6.160;2022-11-20T01:33:54;101184.09;;;-1.07;93.22
4449;BME280;2237;51.870;6.160;2022-11-20T01:36:23;101189.94;;;-1.11;93.06
4449;BME280;2237;51.870;6.160;2022-11-20T01:38:55;101188.94;;;-1.17;93.24
4449;BME280;2237;51.870;6.160;2022-11-20T01:41:22;101183.75;;;-1.18;93.15
4449;BME280;2237;51.870;6.160;2022-11-20T01:44:10;101165.75;;;-1.23;92.92
4449;BME280;2237;51.870;6.160;2022-11-20T01:46:51;101169.81;;;-1.28;93.21
4449;BME280;2237;51.870;6.160;2022-11-20T01:49:24;101172.22;;;-1.34;93.82
4449;BME280;2237;51.870;6.160;2022-11-20T01:51:57;101177.16;;;-1.38;93.90
4449;BME280;2237;51.870;6.160;2022-11-20T01:54:34;101163.53;;;-1.39;94.43
4449;BME280;2237;51.870;6.160;2022-11-20T01:57:04;101165.31;;;-1.36;94.54
4449;BME280;2237;51.870;6.160;2022-11-20T01:59:33;101159.38;;;-1.35;94.75
4449;BME280;2237;51.870;6.160;2022-11-20T02:01:59;101169.47;;;-1.40;94.49
4449;BME280;2237;51.870;6.160;2022-11-20T02:04:26;101173.63;;;-1.43;94.63
4449;BME280;2237;51.870;6.160;2022-11-20T02:06:57;101178.63;;;-1.46;95.08
4449;BME280;2237;51.870;6.160;2022-11-20T02:09:25;101175.25;;;-1.45;95.22
4449;BME280;2237;51.870;6.160;2022-11-20T02:11:52;101170.00;;;-1.50;95.10
4449;BME280;2237;51.870;6.160;2022-11-20T02:14:20;101174.22;;;-1.50;95.13
4449;BME280;2237;51.870;6.160;2022-11-20T02:16:48;101175.16;;;-1.48;94.99
4449;BME280;2237;51.870;6.160;2022-11-20T02:19:27;101175.09;;;-1.50;95.26
4449;BME280;2237;51.870;6.160;2022-11-20T02:22:14;101172.50;;;-1.51;95.40
4449;BME280;2237;51.870;6.160;2022-11-20T02:24:45;101176.78;;;-1.50;95.66
4449;BME280;2237;51.870;6.160;2022-11-20T02:27:14;101172.50;;;-1.51;95.52
4449;BME280;2237;51.870;6.160;2022-11-20T02:34:45;101165.34;;;-1.63;95.72
4449;BME280;2237;51.870;6.160;2022-11-20T02:37:12;101161.84;;;-1.65;96.17
4449;BME280;2237;51.870;6.160;2022-11-20T02:39:39;101170.47;;;-1.61;96.34
4449;BME280;2237;51.870;6.160;2022-11-20T02:42:06;101167.09;;;-1.60;96.35
4449;BME280;2237;51.870;6.160;2022-11-20T02:44:32;101174.81;;;-1.59;96.34
4449;BME280;2237;51.870;6.160;2022-11-20T02:46:59;101174.81;;;-1.59;96.08
4449;BME280;2237;51.870;6.160;2022-11-20T02:49:25;101161.84;;;-1.65;96.50
4449;BME280;2237;51.870;6.160;2022-11-20T02:51:51;101168.66;;;-1.65;96.25
4449;BME280;2237;51.870;6.160;2022-11-20T02:54:18;101158.34;;;-1.68;96.33
4449;BME280;2237;51.870;6.160;2022-11-20T02:56:44;101166.91;;;-1.66;96.58
4449;BME280;2237;51.870;6.160;2022-11-20T02:59:10;101149.66;;;-1.74;96.81
4449;BME280;2237;51.870;6.160;2022-11-20T03:01:37;101153.97;;;-1.71;96.86
4449;BME280;2237;51.870;6.160;2022-11-20T03:04:03;101153.94;;;-1.73;96.84
4449;BME280;2237;51.870;6.160;2022-11-20T03:06:30;101152.25;;;-1.72;96.67
4449;BME280;2237;51.870;6.160;2022-11-20T03:08:56;101152.25;;;-1.72;97.07
4449;BME280;2237;51.870;6.160;2022-11-20T03:11:22;101148.84;;;-1.73;97.13
4449;BME280;2237;51.870;6.160;2022-11-20T03:13:49;101155.72;;;-1.70;97.06
4449;BME280;2237;51.870;6.160;2022-11-20T03:16:19;101149.81;;;-1.69;96.92
4449;BME280;2237;51.870;6.160;2022-11-20T03:18:46;101147.25;;;-1.69;96.87
4449;BME280;2237;51.870;6.160;2022-11-20T03:21:14;101145.50;;;-1.70;96.87
4449;BME280;2237;51.870;6.160;2022-11-20T03:23:41;101146.38;;;-1.69;96.83
4449;BME280;2237;51.870;6.160;2022-11-20T03:26:09;101135.31;;;-1.70;96.97
4449;BME280;2237;51.870;6.160;2022-11-20T03:28:36;101135.28;;;-1.72;96.72
4449;BME280;2237;51.870;6.160;2022-11-20T03:31:11;101129.13;;;-1.77;96.97
4449;BME280;2237;51.870;6.160;2022-11-20T03:33:39;101138.41;;;-1.80;96.50
4449;BME280;2237;51.870;6.160;2022-11-20T03:36:07;101130.66;;;-1.82;97.04
4449;BME280;2237;51.870;6.160;2022-11-20T03:38:35;101122.09;;;-1.84;97.73
4449;BME280;2237;51.870;6.160;2022-11-20T03:41:04;101127.41;;;-1.78;97.83
4449;BME280;2237;51.870;6.160;2022-11-20T03:43:32;101128.81;;;-1.86;98.17
4449;BME280;2237;51.870;6.160;2022-11-20T03:45:58;101125.94;;;-1.96;98.58
4449;BME280;2237;51.870;6.160;2022-11-20T03:48:25;101122.38;;;-2.01;99.11
4449;BME280;2237;51.870;6.160;2022-11-20T03:50:53;101123.25;;;-2.01;99.77
4449;BME280;2237;51.870;6.160;2022-11-20T03:53:31;101129.81;;;-2.07;100.00
4449;BME280;2237;51.870;6.160;2022-11-20T03:55:58;101132.13;;;-2.15;100.00
4449;BME280;2237;51.870;6.160;2022-11-20T03:58:24;101130.44;;;-2.14;100.00
4449;BME280;2237;51.870;6.160;2022-11-20T04:00:51;101129.53;;;-2.16;100.00
4449;BME280;2237;51.870;6.160;2022-11-20T04:03:17;101125.13;;;-2.20;100.00
4449;BME280;2237;51.870;6.160;2022-11-20T04:05:43;101122.78;;;-2.14;100.00
4449;BME280;2237;51.870;6.160;2022-11-20T04:08:10;101116.00;;;-2.14;100.00
4449;BME280;2237;51.870;6.160;2022-11-20T04:10:36;101109.31;;;-2.10;100.00
4449;BME280;2237;51.870;6.160;2022-11-20T04:13:03;101098.19;;;-2.12;100.00
4449;BME280;2237;51.870;6.160;2022-11-20T04:15:29;101103.53;;;-2.05;100.00
4449;BME280;2237;51.870;6.160;2022-11-20T04:18:02;101106.00;;;-2.08;100.00
4449;BME280;2237;51.870;6.160;2022-11-20T04:20:28;101109.44;;;-2.06;100.00
4449;BME280;2237;51.870;6.160;2022-11-20T04:22:55;101115.44;;;-2.05;100.00
4449;BME280;2237;51.870;6.160;2022-11-20T04:25:21;101108.50;;;-2.09;100.00
4449;BME280;2237;51.870;6.160;2022-11-20T04:27:47;101102.78;;;-2.02;100.00
4449;BME280;2237;51.870;6.160;2022-11-20T04:30:14;101111.41;;;-1.99;100.00
4449;BME280;2237;51.870;6.160;2022-11-20T04:32:40;101105.38;;;-2.01;100.00
4449;BME280;2237;51.870;6.160;2022-11-20T04:35:07;101109.53;;;-2.04;100.00
4449;BME280;2237;51.870;6.160;2022-11-20T04:37:33;101105.28;;;-2.04;100.00
4449;BME280;2237;51.870;6.160;2022-11-20T04:39:59;101107.75;;;-2.07;100.00
4449;BME280;2237;51.870;6.160;2022-11-20T04:42:26;101105.13;;;-2.08;100.00
4449;BME280;2237;51.870;6.160;2022-11-20T04:44:55;101098.13;;;-2.14;100.00
4449;BME280;2237;51.870;6.160;2022-11-20T04:47:58;101097.34;;;-2.13;100.00
4449;BME280;2237;51.870;6.160;2022-11-20T04:50:19;101100.69;;;-2.14;100.00
4449;BME280;2237;51.870;6.160;2022-11-20T04:52:46;101107.44;;;-2.16;100.00
4449;BME280;2237;51.870;6.160;2022-11-20T04:55:12;101110.19;;;-2.10;100.00
4449;BME280;2237;51.870;6.160;2022-11-20T04:57:38;101105.97;;;-2.09;100.00
4449;BME280;2237;51.870;6.160;2022-11-20T05:00:05;101105.09;;;-2.10;100.00
4449;BME280;2237;51.870;6.160;2022-11-20T05:02:32;101095.69;;;-2.11;100.00
4449;BME280;2237;51.870;6.160;2022-11-20T05:04:58;101094.88;;;-2.10;100.00
4449;BME280;2237;51.870;6.160;2022-11-20T05:07:24;101090.47;;;-2.14;100.00
4449;BME280;2237;51.870;6.160;2022-11-20T05:09:51;101100.28;;;-2.26;100.00
4449;BME280;2237;51.870;6.160;2022-11-20T05:12:17;101092.38;;;-2.34;100.00
4449;BME280;2237;51.870;6.160;2022-11-20T05:14:44;101101.78;;;-2.33;100.00
4449;BME280;2237;51.870;6.160;2022-11-20T05:17:11;101096.78;;;-2.30;100.00
4449;BME280;2237;51.870;6.160;2022-11-20T05:19:38;101094.34;;;-2.26;100.00
4449;BME280;2237;51.870;6.160;2022-11-20T05:22:04;101080.63;;;-2.29;100.00
4449;BME280;2237;51.870;6.160;2022-11-20T05:24:31;101084.25;;;-2.23;100.00
4449;BME280;2237;51.870;6.160;2022-11-20T05:26:57;101078.19;;;-2.25;100.00
4449;BME280;2237;51.870;6.160;2022-11-20T05:29:24;101077.50;;;-2.21;100.00
4449;BME280;2237;51.870;6.160;2022-11-20T05:31:50;101074.88;;;-2.23;100.00
4449;BME280;2237;51.870;6.160;2022-11-20T05:34:16;101070.53;;;-2.25;100.00
4449;BME280;2237;51.870;6.160;2022-11-20T05:36:42;101067.13;;;-2.26;100.00
4449;BME280;2237;51.870;6.160;2022-11-20T05:39:09;101073.19;;;-2.22;100.00
4449;BME280;2237;51.870;6.160;2022-11-20T05:41:35;101063.06;;;-2.21;100.00
4449;BME280;2237;51.870;6.160;2022-11-20T05:44:02;101068.94;;;-2.23;100.00
4449;BME280;2237;51.870;6.160;2022-11-20T05:46:28;101076.63;;;-2.22;100.00
4449;BME280;2237;51.870;6.160;2022-11-20T05:48:56;101071.41;;;-2.25;100.00
4449;BME280;2237;51.870;6.160;2022-11-20T05:51:23;101081.72;;;-2.22;100.00
4449;BME280;2237;51.870;6.160;2022-11-20T05:53:49;101081.63;;;-2.25;100.00
4449;BME280;2237;51.870;6.160;2022-11-20T05:56:18;101079.88;;;-2.26;100.00
4449;BME280;2237;51.870;6.160;2022-11-20T05:58:45;101078.97;;;-2.28;100.00
4449;BME280;2237;51.870;6.160;2022-11-20T06:01:18;101074.56;;;-2.32;100.00
4449;BME280;2237;51.870;6.160;2022-11-20T06:03:45;101078.72;;;-2.36;100.00
4449;BME280;2237;51.870;6.160;2022-11-20T06:06:12;101076.75;;;-2.43;100.00
4449;BME280;2237;51.870;6.160;2022-11-20T06:08:39;101079.19;;;-2.47;100.00
4449;BME280;2237;51.870;6.160;2022-11-20T06:11:08;101081.63;;;-2.50;100.00
4449;BME280;2237;51.870;6.160;2022-11-20T06:13:34;101079.97;;;-2.48;100.00
4449;BME280;2237;51.870;6.160;2022-11-20T06:16:06;101090.16;;;-2.50;100.00
4449;BME280;2237;51.870;6.160;2022-11-20T06:18:33;101087.63;;;-2.48;100.00
4449;BME280;2237;51.870;6.160;2022-11-20T06:21:05;101089.38;;;-2.47;100.00
4449;BME280;2237;51.870;6.160;2022-11-20T06:23:33;101084.28;;;-2.47;100.00
4449;BME280;2237;51.870;6.160;2022-11-20T06:26:04;101081.66;;;-2.49;100.00
4449;BME280;2237;51.870;6.160;2022-11-20T06:28:31;101097.94;;;-2.45;100.00
4449;BME280;2237;51.870;6.160;2022-11-20T06:30:58;101097.94;;;-2.45;100.00
4449;BME280;2237;51.870;6.160;2022-11-20T06:33:25;101090.97;;;-2.49;100.00
4449;BME280;2237;51.870;6.160;2022-11-20T06:35:51;101104.72;;;-2.46;100.00
4449;BME280;2237;51.870;6.160;2022-11-20T06:38:26;101103.91;;;-2.45;100.00
4449;BME280;2237;51.870;6.160;2022-11-20T06:40:53;101103.03;;;-2.45;100.00
4449;BME280;2237;51.870;6.160;2022-11-20T06:43:19;101098.59;;;-2.51;100.00
4449;BME280;2237;51.870;6.160;2022-11-20T06:45:46;101094.16;;;-2.56;100.00
4449;BME280;2237;51.870;6.160;2022-11-20T06:48:12;101098.41;;;-2.55;100.00
4449;BME280;2237;51.870;6.160;2022-11-20T06:50:38;101099.19;;;-2.58;100.00
4449;BME280;2237;51.870;6.160;2022-11-20T06:53:05;101107.66;;;-2.59;100.00
4449;BME280;2237;51.870;6.160;2022-11-20T06:55:31;101109.44;;;-2.56;100.00
4449;BME280;2237;51.870;6.160;2022-11-20T06:57:58;101104.47;;;-2.53;100.00
4449;BME280;2237;51.870;6.160;2022-11-20T07:00:24;101109.66;;;-2.50;100.00
4449;BME280;2237;51.870;6.160;2022-11-20T07:02:51;101114.75;;;-2.50;100.00
4449;BME280;2237;51.870;6.160;2022-11-20T07:05:17;101113.13;;;-2.48;100.00
4449;BME280;2237;51.870;6.160;2022-11-20T07:07:44;101108.81;;;-2.49;100.00
4449;BME280;2237;51.870;6.160;2022-11-20T07:10:10;101112.31;;;-2.47;100.00
4449;BME280;2237;51.870;6.160;2022-11-20T07:12:36;101106.28;;;-2.49;100.00
4449;BME280;2237;51.870;6.160;2022-11-20T07:15:03;101108.81;;;-2.49;100.00
4449;BME280;2237;51.870;6.160;2022-11-20T07:17:30;101105.59;;;-2.45;100.00
4449;BME280;2237;51.870;6.160;2022-11-20T07:19:56;101109.97;;;-2.41;100.00
4449;BME280;2237;51.870;6.160;2022-11-20T07:22:22;101103.25;;;-2.39;100.00
4449;BME280;2237;51.870;6.160;2022-11-20T07:24:48;101097.38;;;-2.37;100.00
4449;BME280;2237;51.870;6.160;2022-11-20T07:27:15;101105.13;;;-2.34;100.00
4449;BME280;2237;51.870;6.160;2022-11-20T07:29:41;101106.69;;;-2.37;100.00
4449;BME280;2237;51.870;6.160;2022-11-20T07:32:07;101105.00;;;-2.38;100.00
4449;BME280;2237;51.870;6.160;2022-11-20T07:34:34;101105.78;;;-2.39;100.00
4449;BME280;2237;51.870;6.160;2022-11-20T07:37:01;101089.78;;;-2.35;100.00
4449;BME280;2237;51.870;6.160;2022-11-20T07:39:34;101095.06;;;-2.29;100.00
4449;BME280;2237;51.870;6.160;2022-11-20T07:42:00;101084.16;;;-2.25;100.00
4449;BME280;2237;51.870;6.160;2022-11-20T07:44:27;101093.88;;;-2.15;100.00
4449;BME280;2237;51.870;6.160;2022-11-20T07:46:53;101083.00;;;-2.09;100.00
4449;BME280;2237;51.870;6.160;2022-11-20T07:49:19;101077.25;;;-2.02;100.00
4449;BME280;2237;51.870;6.160;2022-11-20T07:51:46;101071.47;;;-1.97;100.00
4449;BME280;2237;51.870;6.160;2022-11-20T07:54:17;101073.41;;;-1.90;100.00
4449;BME280;2237;51.870;6.160;2022-11-20T07:56:43;101081.28;;;-1.84;100.00
4449;BME280;2237;51.870;6.160;2022-11-20T07:59:09;101076.38;;;-1.76;100.00
4449;BME280;2237;51.870;6.160;2022-11-20T08:01:38;101079.22;;;-1.67;100.00
4449;BME280;2237;51.870;6.160;2022-11-20T08:04:05;101066.59;;;-1.62;100.00
4449;BME280;2237;51.870;6.160;2022-11-20T08:06:32;101066.06;;;-1.52;100.00
4449;BME280;2237;51.870;6.160;2022-11-20T08:08:58;101069.72;;;-1.44;100.00
4449;BME280;2237;51.870;6.160;2022-11-20T08:11:25;101075.97;;;-1.35;100.00
4449;BME280;2237;51.870;6.160;2022-11-20T08:14:10;101076.84;;;-1.34;100.00
4449;BME280;2237;51.870;6.160;2022-11-20T08:16:47;101082.75;;;-1.35;100.00
4449;BME280;2237;51.870;6.160;2022-11-20T08:19:15;101079.56;;;-1.28;100.00
4449;BME280;2237;51.870;6.160;2022-11-20T08:21:43;101079.91;;;-1.16;100.00
4449;BME280;2237;51.870;6.160;2022-11-20T08:24:10;101081.91;;;-1.06;100.00
4449;BME280;2237;51.870;6.160;2022-11-20T08:26:38;101075.22;;;-1.01;100.00
4449;BME280;2237;51.870;6.160;2022-11-20T08:29:05;101076.81;;;-1.04;100.00
4449;BME280;2237;51.870;6.160;2022-11-20T08:31:32;101075.94;;;-1.06;100.00
4449;BME280;2237;51.870;6.160;2022-11-20T08:33:58;101086.41;;;-0.97;100.00
4449;BME280;2237;51.870;6.160;2022-11-20T08:36:25;101078.22;;;-0.86;100.00
4449;BME280;2237;51.870;6.160;2022-11-20T08:38:54;101080.31;;;-0.73;100.00
4449;BME280;2237;51.870;6.160;2022-11-20T08:41:21;101072.94;;;-0.61;100.00
4449;BME280;2237;51.870;6.160;2022-11-20T08:43:57;101074.16;;;-0.46;100.00
4449;BME280;2237;51.870;6.160;2022-11-20T08:46:26;101076.25;;;-0.32;100.00
4449;BME280;2237;51.870;6.160;2022-11-20T08:48:53;101067.88;;;-0.26;100.00
4449;BME280;2237;51.870;6.160;2022-11-20T08:51:20;101064.59;;;-0.21;100.00
4449;BME280;2237;51.870;6.160;2022-11-20T08:53:47;101063.81;;;-0.18;100.00
4449;BME280;2237;51.870;6.160;2022-11-20T08:56:15;101060.47;;;-0.14;100.00
4449;BME280;2237;51.870;6.160;2022-11-20T08:58:42;101052.94;;;-0.08;100.00
4449;BME280;2237;51.870;6.160;2022-11-20T09:01:29;101046.38;;;0.02;100.00
4449;BME280;2237;51.870;6.160;2022-11-20T09:03:56;101053.50;;;0.15;100.00
4449;BME280;2237;51.870;6.160;2022-11-20T09:06:23;101047.84;;;0.28;100.00
4449;BME280;2237;51.870;6.160;2022-11-20T09:08:53;101049.13;;;0.46;100.00
4449;BME280;2237;51.870;6.160;2022-11-20T09:11:21;101049.41;;;0.60;100.00
4449;BME280;2237;51.870;6.160;2022-11-20T09:13:47;101048.06;;;0.79;100.00
4449;BME280;2237;51.870;6.160;2022-11-20T09:16:14;101040.75;;;0.95;100.00
4449;BME280;2237;51.870;6.160;2022-11-20T09:18:40;101041.06;;;1.12;100.00
4449;BME280;2237;51.870;6.160;2022-11-20T19:42:17;100246.59;;;3.24;100.00
4449;BME280;2237;51.870;6.160;2022-11-20T19:44:44;100237.94;;;3.46;100.00
4449;BME280;2237;51.870;6.160;2022-11-20T19:47:10;100253.28;;;3.76;100.00
4449;BME280;2237;51.870;6.160;2022-11-20T19:49:40;100250.56;;;4.05;100.00
4449;BME280;2237;51.870;6.160;2022-11-20T19:52:06;100245.28;;;4.29;100.00
4449;BME280;2237;51.870;6.160;2022-11-20T19:54:33;100236.63;;;4.41;100.00
4449;BME280;2237;51.870;6.160;2022-11-20T19:56:59;100240.84;;;4.52;100.00
4449;BME280;2237;51.870;6.160;2022-11-20T19:59:25;100238.25;;;4.55;100.00
4449;BME280;2237;51.870;6.160;2022-11-20T20:01:52;100238.16;;;4.66;100.00
4449;BME280;2237;51.870;6.160;2022-11-20T20:04:18;100229.41;;;4.79;100.00
4449;BME280;2237;51.870;6.160;2022-11-20T20:06:45;100219.94;;;4.84;100.00
4449;BME280;2237;51.870;6.160;2022-11-20T20:09:12;100215.53;;;4.94;100.00
4449;BME280;2237;51.870;6.160;2022-11-20T20:11:39;100219.78;;;5.01;100.00
4449;BME280;2237;51.870;6.160;2022-11-20T20:14:08;100218.88;;;5.03;100.00
4449;BME280;2237;51.870;6.160;2022-11-20T20:16:35;100220.59;;;5.07;100.00
4449;BME280;2237;51.870;6.160;2022-11-20T20:19:03;100231.72;;;5.11;100.00
4449;BME280;2237;51.870;6.160;2022-11-20T20:21:32;100235.97;;;5.17;100.00
4449;BME280;2237;51.870;6.160;2022-11-20T20:23:59;100244.56;;;5.19;100.00
4449;BME280;2237;51.870;6.160;2022-11-20T20:26:28;100257.47;;;5.17;100.00
4449;BME280;2237;51.870;6.160;2022-11-20T20:28:55;100278.13;;;5.14;100.00
4449;BME280;2237;51.870;6.160;2022-11-20T20:31:23;100272.25;;;5.01;100.00
4449;BME280;2237;51.870;6.160;2022-11-20T20:33:50;100268.75;;;5.05;100.00
4449;BME280;2237;51.870;6.160;2022-11-20T20:36:18;100272.94;;;5.17;100.00
4449;BME280;2237;51.870;6.160;2022-11-20T20:38:45;100272.06;;;5.21;100.00
4449;BME280;2237;51.870;6.160;2022-11-20T20:41:13;100265.16;;;5.25;100.00
4449;BME280;2237;51.870;6.160;2022-11-20T20:43:39;100269.41;;;5.29;100.00
4449;BME280;2237;51.870;6.160;2022-11-20T20:46:24;100272.84;;;5.31;100.00
4449;BME280;2237;51.870;6.160;2022-11-20T20:48:51;100288.38;;;5.23;100.00
4449;BME280;2237;51.870;6.160;2022-11-20T20:51:20;100292.75;;;5.18;100.00
4449;BME280;2237;51.870;6.160;2022-11-20T20:53:47;100295.38;;;5.13;100.00
4449;BME280;2237;51.870;6.160;2022-11-20T20:56:13;100295.34;;;5.17;100.00
4449;BME280;2237;51.870;6.160;2022-11-20T20:58:40;100295.25;;;5.23;100.00
4449;BME280;2237;51.870;6.160;2022-11-20T21:01:12;100305.50;;;5.32;100.00
4449;BME280;2237;51.870;6.160;2022-11-20T21:03:39;100301.22;;;5.32;100.00
4449;BME280;2237;51.870;6.160;2022-11-20T21:06:07;100302.00;;;5.39;100.00
4449;BME280;2237;51.870;6.160;2022-11-20T21:08:34;100308.19;;;5.24;100.00
4449;BME280;2237;51.870;6.160;2022-11-20T21:11:11;100313.38;;;5.21;100.00
4449;BME280;2237;51.870;6.160;2022-11-20T21:13:39;100303.88;;;5.25;100.00
4449;BME280;2237;51.870;6.160;2022-11-20T21:16:06;100318.44;;;5.30;100.00
4449;BME280;2237;51.870;6.160;2022-11-20T21:18:32;100322.69;;;5.34;100.00
4449;BME280;2237;51.870;6.160;2022-11-20T21:20:59;100328.84;;;5.20;100.00
4449;BME280;2237;51.870;6.160;2022-11-20T21:23:45;100324.63;;;5.12;100.00
4449;BME280;2237;51.870;6.160;2022-11-20T21:26:13;100322.00;;;5.19;100.00
4449;BME280;2237;51.870;6.160;2022-11-20T21:28:41;100334.81;;;5.28;100.00
4449;BME280;2237;51.870;6.160;2022-11-20T21:31:34;100321.91;;;5.26;100.00
4449;BME280;2237;51.870;6.160;2022-11-20T21:34:00;100305.53;;;5.29;100.00
4449;BME280;2237;51.870;6.160;2022-11-20T21:36:29;100315.84;;;5.32;100.00
4449;BME280;2237;51.870;6.160;2022-11-20T21:38:57;100325.31;;;5.33;100.00
4449;BME280;2237;51.870;6.160;2022-11-20T21:41:28;100315.06;;;5.24;100.00
4449;BME280;2237;51.870;6.160;2022-11-20T21:43:56;100318.47;;;5.26;100.00
4449;BME280;2237;51.870;6.160;2022-11-20T21:46:44;100331.41;;;5.23;100.00
4449;BME280;2237;51.870;6.160;2022-11-20T21:49:11;100315.94;;;5.21;100.00
4449;BME280;2237;51.870;6.160;2022-11-20T21:51:39;100344.28;;;5.26;100.00
4449;BME280;2237;51.870;6.160;2022-11-20T21:54:06;100340.84;;;5.27;100.00
4449;BME280;2237;51.870;6.160;2022-11-20T21:56:32;100337.34;;;5.34;100.00
4449;BME280;2237;51.870;6.160;2022-11-20T21:58:58;100342.56;;;5.26;100.00
4449;BME280;2237;51.870;6.160;2022-11-20T22:01:28;100340.88;;;5.25;100.00
4449;BME280;2237;51.870;6.160;2022-11-20T22:03:58;100343.47;;;5.21;100.00
4449;BME280;2237;51.870;6.160;2022-11-20T22:06:25;100350.34;;;5.23;100.00
4449;BME280;2237;51.870;6.160;2022-11-20T22:08:54;100343.44;;;5.24;100.00
4449;BME280;2237;51.870;6.160;2022-11-20T22:11:20;100353.75;;;5.27;100.00
4449;BME280;2237;51.870;6.160;2022-11-20T22:13:47;100350.31;;;5.28;100.00
4449;BME280;2237;51.870;6.160;2022-11-20T22:16:34;100352.88;;;5.31;100.00
4449;BME280;2237;51.870;6.160;2022-11-20T22:19:00;100358.00;;;5.32;100.00
4449;BME280;2237;51.870;6.160;2022-11-20T22:21:28;100365.72;;;5.35;100.00
4449;BME280;2237;51.870;6.160;2022-11-20T22:23:55;100360.47;;;5.43;100.00
4449;BME280;2237;51.870;6.160;2022-11-20T22:26:24;100358.75;;;5.48;100.00
4449;BME280;2237;51.870;6.160;2022-11-20T22:28:52;100354.47;;;5.44;100.00
4449;BME280;2237;51.870;6.160;2022-11-20T22:31:21;100347.50;;;5.49;100.00
4449;BME280;2237;51.870;6.160;2022-11-20T22:33:47;100355.25;;;5.49;100.00
4449;BME280;2237;51.870;6.160;2022-11-20T22:36:22;100355.25;;;5.50;100.00
4449;BME280;2237;51.870;6.160;2022-11-20T22:38:50;100371.63;;;5.51;100.00
4449;BME280;2237;51.870;6.160;2022-11-20T22:41:18;100376.78;;;5.49;100.00
4449;BME280;2237;51.870;6.160;2022-11-20T22:43:45;100369.09;;;5.45;100.00
4449;BME280;2237;51.870;6.160;2022-11-20T22:46:14;100387.13;;;5.49;100.00
4449;BME280;2237;51.870;6.160;2022-11-20T22:48:43;100381.09;;;5.49;100.00
4449;BME280;2237;51.870;6.160;2022-11-20T22:51:14;100385.41;;;5.48;100.00
4449;BME280;2237;51.870;6.160;2022-11-20T22:53:42;100391.47;;;5.43;100.00
4449;BME280;2237;51.870;6.160;2022-11-20T22:56:11;100389.75;;;5.43;100.00
4449;BME280;2237;51.870;6.160;2022-11-20T22:58:38;100388.06;;;5.41;100.00
4449;BME280;2237;51.870;6.160;2022-11-20T23:01:10;100390.63;;;5.42;100.00
4449;BME280;2237;51.870;6.160;2022-11-20T23:03:38;100399.19;;;5.46;100.00
4449;BME280;2237;51.870;6.160;2022-11-20T23:06:06;100394.03;;;5.47;100.00
4449;BME280;2237;51.870;6.160;2022-11-20T23:08:32;100397.44;;;5.49;100.00
4449;BME280;2237;51.870;6.160;2022-11-20T23:11:04;100404.44;;;5.38;100.00
4449;BME280;2237;51.870;6.160;2022-11-20T23:13:31;100401.03;;;5.33;100.00
4449;BME280;2237;51.870;6.160;2022-11-20T23:16:09;100408.75;;;5.35;100.00
4449;BME280;2237;51.870;6.160;2022-11-20T23:18:36;100412.22;;;5.34;100.00
4449;BME280;2237;51.870;6.160;2022-11-20T23:21:14;100409.63;;;5.35;100.00
4449;BME280;2237;51.870;6.160;2022-11-20T23:23:41;100410.50;;;5.33;100.00
4449;BME280;2237;51.870;6.160;2022-11-20T23:26:10;100414.88;;;5.25;100.00
4449;BME280;2237;51.870;6.160;2022-11-20T23:28:37;100424.31;;;5.26;100.00
4449;BME280;2237;51.870;6.160;2022-11-20T23:31:05;100420.00;;;5.26;100.00
4449;BME280;2237;51.870;6.160;2022-11-20T23:33:36;100415.66;;;5.33;100.00
4449;BME280;2237;51.870;6.160;2022-11-20T23:36:03;100420.81;;;5.36;100.00
4449;BME280;2237;51.870;6.160;2022-11-20T23:38:30;100423.38;;;5.36;100.00
4449;BME280;2237;51.870;6.160;2022-11-20T23:40:56;100419.91;;;5.38;100.00